Time;durP1;ratioP1;P1;durP2;ratioP2;P2;SDS_P1;SDS_P2;PMS_P1;PMS_P2;Temp;Humidity;BMP_temperature;BMP_pressure;BME280_temperature;BME280_humidity;BME280_pressure;Samples;Min_cycle;Max_cycle;Signal;HPM_P1;HPM_P2
2022/09/30 00:01:45;;;;;;;3.40;3.10;;;8.30;99.90;;;;;;4916503;29;20508;-74
2022/09/30 00:04:24;;;;;;;7.32;6.63;;;8.20;99.90;;;;;;4925340;29;20464;-74
2022/09/30 00:06:51;;;;;;;3.90;2.95;;;8.10;99.90;;;;;;4928036;29;20047;-74
2022/09/30 00:09:17;;;;;;;3.55;2.95;;;8.10;99.90;;;;;;4926369;29;20044;-73
2022/09/30 00:11:43;;;;;;;5.88;4.07;;;8.00;99.90;;;;;;4942061;28;20047;-74
2022/09/30 00:14:16;;;;;;;61.15;13.48;;;8.00;99.90;;;;;;4922368;29;20078;-74
2022/09/30 00:16:42;;;;;;;3.90;3.40;;;8.00;99.90;;;;;;4926642;29;20058;-73
2022/09/30 00:19:08;;;;;;;3.40;2.50;;;8.00;99.90;;;;;;4926183;28;20035;-74
2022/09/30 00:21:34;;;;;;;4.10;3.50;;;8.00;99.90;;;;;;4925706;29;20047;-74
2022/09/30 00:24:01;;;;;;;3.60;3.17;;;8.00;99.90;;;;;;4930397;28;20050;-74
2022/09/30 00:26:26;;;;;;;5.35;3.50;;;8.00;99.90;;;;;;4929924;29;20506;-74
2022/09/30 00:28:55;;;;;;;4.63;4.13;;;8.10;99.90;;;;;;4921614;29;20130;-74
2022/09/30 00:31:22;;;;;;;4.57;3.92;;;8.10;99.90;;;;;;4926706;29;20078;-73
2022/09/30 00:34:05;;;;;;;4.53;3.30;;;8.10;99.90;;;;;;4927335;29;20150;-74
2022/09/30 00:36:37;;;;;;;3.40;2.95;;;8.10;99.90;;;;;;4915941;29;20134;-73
2022/09/30 00:39:04;;;;;;;4.35;3.40;;;8.10;99.90;;;;;;4919663;28;20121;-74
2022/09/30 00:41:31;;;;;;;3.83;3.42;;;8.10;99.90;;;;;;4927820;29;20043;-73
2022/09/30 00:43:56;;;;;;;4.10;3.08;;;8.10;99.90;;;;;;4942934;28;20471;-73
2022/09/30 00:46:36;;;;;;;8.43;7.60;;;8.10;99.90;;;;;;4927691;29;20134;-73
2022/09/30 00:49:10;;;;;;;6.22;5.60;;;8.10;99.90;;;;;;4940820;29;20061;-73
2022/09/30 00:51:40;;;;;;;3.58;2.90;;;8.00;99.90;;;;;;4910135;29;20083;-73
2022/09/30 00:54:13;;;;;;;4.68;3.70;;;8.00;99.90;;;;;;4929493;29;20054;-73
2022/09/30 00:56:43;;;;;;;4.70;3.55;;;7.90;99.90;;;;;;4938362;28;20085;-74
2022/09/30 00:59:32;;;;;;;4.28;3.88;;;8.00;99.90;;;;;;4929108;29;20505;-74
2022/09/30 01:02:01;;;;;;;3.83;3.45;;;8.00;99.90;;;;;;4932195;28;20413;-73
2022/09/30 01:04:30;;;;;;;3.88;3.50;;;8.00;99.90;;;;;;4943559;28;20054;-73
2022/09/30 01:07:00;;;;;;;3.65;3.10;;;8.00;99.90;;;;;;4925510;28;20066;-73
2022/09/30 01:09:26;;;;;;;4.05;3.55;;;8.00;99.90;;;;;;4942696;28;20584;-69
2022/09/30 01:11:52;;;;;;;5.47;4.97;;;7.90;99.90;;;;;;4912056;29;20047;-68
2022/09/30 01:14:23;;;;;;;5.90;5.10;;;7.90;99.90;;;;;;4926331;29;20051;-68
2022/09/30 01:17:09;;;;;;;8.00;7.00;;;7.90;99.90;;;;;;4928275;29;20047;-68
2022/09/30 01:20:12;;;;;;;5.38;4.45;;;7.90;99.90;;;;;;4926407;29;20340;-69
2022/09/30 01:23:10;;;;;;;4.93;4.13;;;7.90;99.90;;;;;;4927852;28;20047;-69
2022/09/30 01:26:23;;;;;;;6.55;5.20;;;7.80;99.90;;;;;;4922049;29;20046;-69
2022/09/30 01:28:48;;;;;;;7.43;6.72;;;7.80;99.90;;;;;;4869182;29;20059;-69
2022/09/30 01:31:35;;;;;;;7.00;5.75;;;7.90;99.90;;;;;;4864029;29;20040;-69
2022/09/30 01:34:01;;;;;;;6.47;4.55;;;7.80;99.90;;;;;;4897952;28;20494;-68
2022/09/30 01:36:47;;;;;;;26.77;7.32;;;7.80;99.90;;;;;;4906496;29;20106;-68
2022/09/30 01:39:35;;;;;;;37.83;9.13;;;7.80;99.90;;;;;;4946279;28;20139;-69
2022/09/30 01:42:32;;;;;;;24.65;8.02;;;7.70;99.90;;;;;;4919508;29;20498;-69
2022/09/30 01:45:18;;;;;;;5.60;3.78;;;7.60;99.90;;;;;;4930886;29;20055;-69
2022/09/30 01:48:03;;;;;;;54.80;11.50;;;7.50;99.90;;;;;;4950223;28;20047;-69
2022/09/30 01:50:51;;;;;;;4.68;3.58;;;7.50;99.90;;;;;;4931486;29;20058;-69
2022/09/30 01:53:40;;;;;;;6.60;4.25;;;7.50;99.90;;;;;;4931269;29;20054;-69
2022/09/30 01:56:35;;;;;;;10.20;6.22;;;7.50;99.90;;;;;;4902110;29;20126;-68
2022/09/30 01:59:05;;;;;;;6.40;5.47;;;7.50;99.90;;;;;;4902594;29;20252;-68
2022/09/30 02:01:56;;;;;;;7.40;5.60;;;7.50;99.90;;;;;;4941760;28;20043;-68
2022/09/30 02:04:30;;;;;;;6.22;5.63;;;7.50;99.90;;;;;;4919353;28;20047;-68
2022/09/30 02:07:05;;;;;;;5.32;4.30;;;7.50;99.90;;;;;;4913823;29;20126;-68
2022/09/30 02:09:45;;;;;;;5.90;4.72;;;7.50;99.90;;;;;;4932490;28;20052;-68
2022/09/30 02:12:18;;;;;;;16.55;11.23;;;7.50;99.90;;;;;;4922963;29;20515;-68
2022/09/30 02:14:48;;;;;;;27.50;10.85;;;7.40;99.90;;;;;;4942224;28;20054;-68
2022/09/30 02:17:32;;;;;;;6.05;5.45;;;7.30;99.90;;;;;;4929874;28;20090;-68
2022/09/30 02:20:15;;;;;;;5.95;5.15;;;7.30;99.90;;;;;;4931560;28;20126;-68
2022/09/30 02:23:02;;;;;;;8.40;6.53;;;7.20;99.90;;;;;;4934198;28;20101;-68
2022/09/30 02:25:53;;;;;;;6.05;5.45;;;7.20;99.90;;;;;;4921431;28;20051;-68
2022/09/30 02:28:25;;;;;;;7.00;4.88;;;7.20;99.90;;;;;;4915456;29;20647;-69
2022/09/30 02:30:56;;;;;;;6.03;4.82;;;7.20;99.90;;;;;;4925560;29;20068;-69
2022/09/30 02:33:36;;;;;;;6.53;4.82;;;7.10;99.90;;;;;;4938973;28;20443;-68
2022/09/30 02:36:09;;;;;;;5.50;4.70;;;7.10;99.90;;;;;;4928847;29;20047;-69
2022/09/30 02:38:41;;;;;;;8.55;6.30;;;7.10;99.90;;;;;;4932478;28;20044;-69
2022/09/30 02:41:18;;;;;;;10.30;6.88;;;7.10;99.90;;;;;;4941368;28;20042;-68
2022/09/30 02:43:44;;;;;;;16.02;11.82;;;7.10;99.90;;;;;;4938504;28;20059;-68
2022/09/30 02:46:29;;;;;;;32.35;15.45;;;7.00;99.90;;;;;;4929103;28;20079;-68
2022/09/30 02:49:07;;;;;;;57.80;17.27;;;7.00;99.90;;;;;;4927642;29;20157;-68
2022/09/30 02:51:59;;;;;;;197.52;24.77;;;6.90;99.90;;;;;;4930778;29;20070;-68
2022/09/30 02:54:57;;;;;;;159.50;26.67;;;6.90;99.90;;;;;;4916559;29;20051;-68
2022/09/30 02:57:45;;;;;;;213.32;30.92;;;6.80;99.90;;;;;;4924018;29;20375;-68
2022/09/30 03:00:12;;;;;;;5.70;5.20;;;6.70;99.90;;;;;;4915892;29;20043;-68
2022/09/30 03:02:39;;;;;;;42.00;12.10;;;6.60;99.90;;;;;;4924898;29;20109;-68
2022/09/30 03:05:05;;;;;;;65.47;10.07;;;6.60;99.90;;;;;;4925425;29;20056;-68
2022/09/30 03:07:32;;;;;;;6.85;4.82;;;6.60;99.90;;;;;;4917181;29;20126;-68
2022/09/30 03:09:58;;;;;;;13.70;5.13;;;6.60;99.90;;;;;;4917473;29;20054;-68
2022/09/30 03:12:40;;;;;;;20.23;5.97;;;6.60;99.90;;;;;;4926935;29;20047;-68
2022/09/30 03:15:12;;;;;;;4.82;4.43;;;6.60;99.90;;;;;;4945331;28;20107;-68
2022/09/30 03:17:49;;;;;;;5.38;4.88;;;6.60;99.90;;;;;;4925410;29;20051;-68
2022/09/30 03:20:33;;;;;;;73.30;16.58;;;6.60;99.90;;;;;;4939237;28;20126;-68
2022/09/30 03:23:35;;;;;;;6.20;5.60;;;6.60;99.90;;;;;;4929621;29;20063;-68
2022/09/30 03:26:19;;;;;;;6.68;6.03;;;6.70;99.90;;;;;;4916117;29;20040;-68
2022/09/30 03:29:04;;;;;;;62.50;18.02;;;6.60;99.90;;;;;;4935487;28;20051;-68
2022/09/30 03:31:49;;;;;;;37.33;8.90;;;6.60;99.90;;;;;;4917825;29;20071;-68
2022/09/30 03:34:20;;;;;;;117.88;18.17;;;6.50;99.90;;;;;;4941052;28;20402;-68
2022/09/30 03:37:14;;;;;;;6.25;4.75;;;6.50;99.90;;;;;;4924549;29;20059;-68
2022/09/30 03:39:46;;;;;;;102.75;13.00;;;6.40;99.90;;;;;;4926429;28;20062;-68
2022/09/30 03:42:33;;;;;;;116.13;21.77;;;6.40;99.90;;;;;;4932836;29;20043;-68
2022/09/30 03:45:31;;;;;;;6.03;5.05;;;6.40;99.90;;;;;;4947017;28;20554;-68
2022/09/30 03:48:02;;;;;;;10.20;5.63;;;6.40;99.90;;;;;;4924677;28;20134;-68
2022/09/30 03:50:30;;;;;;;18.60;6.32;;;6.40;99.90;;;;;;4923715;29;20060;-68
2022/09/30 03:52:56;;;;;;;6.15;5.60;;;6.40;99.90;;;;;;4922910;29;20059;-68
2022/09/30 03:55:23;;;;;;;28.60;7.68;;;6.40;99.90;;;;;;4945571;28;20391;-68
2022/09/30 03:57:50;;;;;;;15.85;7.80;;;6.50;99.90;;;;;;4926667;29;20048;-68
2022/09/30 04:00:16;;;;;;;8.75;6.88;;;6.50;99.90;;;;;;4915672;28;20198;-68
2022/09/30 04:02:41;;;;;;;17.02;8.55;;;6.50;99.90;;;;;;4919053;29;20473;-68
2022/09/30 04:05:07;;;;;;;5.03;4.63;;;6.50;99.90;;;;;;4919120;29;20047;-68
2022/09/30 04:07:34;;;;;;;5.18;4.68;;;6.50;99.90;;;;;;4923295;29;20052;-68
2022/09/30 04:10:00;;;;;;;6.00;5.50;;;6.50;99.90;;;;;;4930369;29;20043;-68
2022/09/30 04:12:26;;;;;;;4.85;4.45;;;6.50;99.90;;;;;;4947368;28;20054;-68
2022/09/30 04:14:52;;;;;;;23.65;18.25;;;6.50;99.90;;;;;;4932119;29;20047;-68
2022/09/30 04:17:17;;;;;;;13.40;9.75;;;6.40;99.90;;;;;;4927354;29;20561;-68
2022/09/30 04:19:43;;;;;;;8.38;7.57;;;6.40;99.90;;;;;;4916866;29;20047;-68
2022/09/30 04:22:09;;;;;;;7.53;6.82;;;6.40;99.90;;;;;;4922028;28;20427;-68
2022/09/30 04:24:35;;;;;;;22.73;8.23;;;6.30;99.90;;;;;;4927726;29;20132;-68
2022/09/30 04:27:02;;;;;;;17.75;8.25;;;6.40;99.90;;;;;;4930694;28;20155;-68
2022/09/30 04:29:28;;;;;;;7.50;6.80;;;6.40;99.90;;;;;;4918378;29;20605;-68
2022/09/30 04:31:54;;;;;;;18.60;7.13;;;6.40;99.90;;;;;;4890009;28;20048;-68
2022/09/30 04:34:19;;;;;;;41.75;9.75;;;6.50;99.90;;;;;;4924590;29;20039;-68
2022/09/30 04:36:45;;;;;;;21.00;10.43;;;6.60;99.90;;;;;;4895181;28;20039;-73
2022/09/30 04:39:11;;;;;;;33.50;14.65;;;6.50;99.90;;;;;;4934049;29;20302;-73
2022/09/30 04:41:37;;;;;;;37.10;16.65;;;6.60;99.90;;;;;;4914116;28;20426;-73
2022/09/30 04:44:06;;;;;;;84.32;15.77;;;6.60;99.90;;;;;;4923480;29;20062;-73
2022/09/30 04:46:35;;;;;;;13.20;11.65;;;6.70;99.90;;;;;;4906848;29;20078;-73
2022/09/30 04:49:05;;;;;;;12.05;10.85;;;6.70;99.90;;;;;;4912265;28;20059;-73
2022/09/30 04:51:31;;;;;;;29.02;12.32;;;6.70;99.90;;;;;;4929749;28;20526;-73
2022/09/30 04:53:57;;;;;;;11.52;9.60;;;6.70;99.90;;;;;;4923400;28;20102;-73
2022/09/30 04:56:25;;;;;;;9.13;8.30;;;6.70;99.90;;;;;;4934284;28;20039;-73
2022/09/30 04:58:52;;;;;;;12.65;11.45;;;6.60;99.90;;;;;;4906442;29;20047;-73
2022/09/30 05:01:18;;;;;;;21.85;11.32;;;6.70;99.90;;;;;;4929960;29;20058;-74
2022/09/30 05:03:44;;;;;;;19.63;13.65;;;6.70;99.90;;;;;;4928836;29;20137;-73
2022/09/30 05:06:11;;;;;;;145.50;34.85;;;6.70;99.90;;;;;;4919969;29;20044;-72
2022/09/30 05:08:37;;;;;;;8.98;8.07;;;6.60;99.90;;;;;;4921159;29;20813;-73
2022/09/30 05:11:08;;;;;;;20.45;9.68;;;6.60;99.90;;;;;;4928495;28;20062;-73
2022/09/30 05:13:39;;;;;;;192.43;35.83;;;6.60;99.90;;;;;;4915821;29;20062;-73
2022/09/30 05:16:07;;;;;;;17.65;7.60;;;6.50;99.90;;;;;;4923214;29;20611;-73
2022/09/30 05:18:33;;;;;;;25.75;11.82;;;6.50;99.90;;;;;;4919154;29;20047;-73
2022/09/30 05:20:59;;;;;;;12.02;11.02;;;6.40;99.90;;;;;;4924544;29;20055;-73
2022/09/30 05:23:26;;;;;;;10.52;9.63;;;6.40;99.90;;;;;;4927050;29;20051;-73
2022/09/30 05:25:52;;;;;;;230.35;44.20;;;6.40;99.90;;;;;;4907099;28;20043;-73
2022/09/30 05:28:18;;;;;;;8.88;8.18;;;6.40;99.90;;;;;;4926619;29;20106;-74
2022/09/30 05:30:45;;;;;;;11.52;10.63;;;6.40;99.90;;;;;;4923554;28;20052;-73
2022/09/30 05:33:12;;;;;;;10.52;9.63;;;6.40;99.90;;;;;;4923439;29;20052;-73
2022/09/30 05:35:40;;;;;;;13.13;10.52;;;6.40;99.90;;;;;;4924614;28;20410;-73
2022/09/30 05:38:06;;;;;;;9.88;9.07;;;6.40;99.90;;;;;;4905111;29;20454;-73
2022/09/30 05:40:32;;;;;;;74.10;21.27;;;6.40;99.90;;;;;;4940574;28;20398;-72
2022/09/30 05:42:59;;;;;;;11.48;10.52;;;6.40;99.90;;;;;;4927424;29;20039;-72
2022/09/30 05:45:25;;;;;;;9.82;8.93;;;6.30;99.90;;;;;;4926509;29;20043;-73
2022/09/30 05:47:55;;;;;;;9.63;8.82;;;6.30;99.90;;;;;;4931252;29;20110;-72
2022/09/30 05:50:22;;;;;;;10.90;10.00;;;6.20;99.90;;;;;;4927042;29;20047;-73
2022/09/30 05:52:48;;;;;;;11.50;10.50;;;6.20;99.90;;;;;;4922468;29;20354;-73
2022/09/30 05:55:19;;;;;;;10.60;9.50;;;6.30;99.90;;;;;;4918337;29;20057;-73
2022/09/30 05:57:51;;;;;;;12.77;11.60;;;6.30;99.90;;;;;;4913880;29;20040;-74
2022/09/30 06:00:18;;;;;;;15.05;13.57;;;6.30;99.90;;;;;;4913181;29;20350;-74
2022/09/30 06:02:44;;;;;;;14.18;11.63;;;6.40;99.90;;;;;;4936173;29;20058;-74
2022/09/30 06:05:11;;;;;;;13.07;11.90;;;6.40;99.90;;;;;;4927719;29;20052;-74
2022/09/30 06:07:37;;;;;;;11.85;10.77;;;6.50;99.90;;;;;;4915084;29;20055;-74
2022/09/30 06:10:06;;;;;;;11.98;10.77;;;6.50;99.90;;;;;;4926946;29;20138;-74
2022/09/30 06:12:33;;;;;;;12.18;10.98;;;6.50;99.90;;;;;;4935354;28;20083;-74
2022/09/30 06:14:58;;;;;;;16.33;14.75;;;6.50;99.90;;;;;;4919516;29;20047;-73
2022/09/30 06:17:24;;;;;;;31.95;24.30;;;6.50;99.90;;;;;;4924706;28;20052;-73
2022/09/30 06:19:50;;;;;;;14.02;12.70;;;6.50;99.90;;;;;;4916161;29;20043;-73
2022/09/30 06:22:17;;;;;;;11.77;10.68;;;6.50;99.90;;;;;;4923473;29;20102;-73
2022/09/30 06:24:43;;;;;;;23.77;21.20;;;6.40;99.90;;;;;;4915372;29;20040;-73
2022/09/30 06:27:09;;;;;;;15.40;14.00;;;6.40;99.90;;;;;;4942118;28;20510;-72
2022/09/30 06:29:35;;;;;;;15.75;14.35;;;6.40;99.90;;;;;;4922182;29;20516;-73
2022/09/30 06:32:01;;;;;;;14.48;13.18;;;6.40;99.90;;;;;;4923714;29;20039;-72
2022/09/30 06:34:27;;;;;;;16.63;15.13;;;6.40;99.90;;;;;;4924039;28;20526;-73
2022/09/30 06:36:53;;;;;;;18.17;16.58;;;6.50;99.90;;;;;;4913969;29;20059;-73
2022/09/30 06:39:19;;;;;;;24.67;22.08;;;6.60;99.90;;;;;;4926276;29;20047;-72
2022/09/30 06:41:45;;;;;;;28.80;25.55;;;6.70;99.90;;;;;;4911773;29;20702;-73
2022/09/30 06:44:11;;;;;;;26.15;23.50;;;6.60;99.90;;;;;;4917001;28;20051;-73
2022/09/30 06:46:38;;;;;;;28.15;25.48;;;6.70;99.90;;;;;;4919799;29;20047;-72
2022/09/30 06:49:04;;;;;;;33.15;29.65;;;6.70;99.90;;;;;;4923429;28;20047;-73
2022/09/30 06:51:35;;;;;;;46.05;37.13;;;6.70;99.90;;;;;;4897106;29;20447;-73
2022/09/30 06:54:01;;;;;;;29.33;26.55;;;6.80;99.90;;;;;;4910945;28;20130;-74
2022/09/30 06:56:27;;;;;;;28.60;26.05;;;6.80;99.90;;;;;;4907413;29;20043;-73
2022/09/30 06:58:55;;;;;;;30.52;27.73;;;6.90;99.90;;;;;;4898246;28;20059;-74
2022/09/30 07:01:23;;;;;;;31.10;28.35;;;7.00;99.90;;;;;;4930675;29;20079;-73
2022/09/30 07:03:55;;;;;;;38.38;29.75;;;7.10;99.90;;;;;;4917159;29;20047;-74
2022/09/30 07:06:21;;;;;;;47.53;33.50;;;7.20;99.90;;;;;;4922368;29;20125;-74
2022/09/30 07:08:46;;;;;;;54.50;36.90;;;7.30;99.90;;;;;;4910403;29;20506;-75
2022/09/30 07:11:15;;;;;;;90.03;45.03;;;7.30;99.90;;;;;;4922616;29;20043;-75
2022/09/30 07:13:46;;;;;;;43.55;32.45;;;7.40;99.90;;;;;;4925902;29;20509;-75
2022/09/30 07:16:12;;;;;;;;;;;7.50;99.90;;;;;;4929553;29;20039;-74
2022/09/30 07:18:41;;;;;;;96.55;44.08;;;7.60;99.90;;;;;;4926307;29;19929;-75
2022/09/30 07:21:08;;;;;;;78.13;42.08;;;7.60;99.90;;;;;;4909468;28;20043;-74
2022/09/30 07:23:33;;;;;;;71.85;39.05;;;7.70;99.90;;;;;;4926158;29;20048;-74
2022/09/30 07:26:03;;;;;;;99.18;44.83;;;7.80;99.90;;;;;;4925575;28;20418;-75
2022/09/30 07:28:34;;;;;;;115.07;43.78;;;7.90;99.90;;;;;;4923948;29;20048;-75
2022/09/30 07:31:06;;;;;;;151.52;47.90;;;8.00;99.90;;;;;;4940406;28;20058;-74
2022/09/30 07:33:32;;;;;;;155.20;51.63;;;8.10;99.90;;;;;;4935001;29;20381;-74
2022/09/30 07:35:59;;;;;;;91.82;41.55;;;8.20;99.90;;;;;;4913402;28;20043;-75
2022/09/30 07:38:28;;;;;;;68.05;37.47;;;8.30;99.90;;;;;;4924866;29;20579;-74
2022/09/30 07:40:57;;;;;;;109.50;48.88;;;8.40;99.90;;;;;;4928267;28;20494;-75
2022/09/30 07:43:37;;;;;;;141.07;50.97;;;8.50;99.90;;;;;;4914616;29;20047;-74
2022/09/30 07:46:10;;;;;;;137.68;51.47;;;8.50;99.90;;;;;;4928267;29;20051;-74
2022/09/30 07:48:49;;;;;;;176.70;53.70;;;8.60;99.90;;;;;;4929551;29;20134;-74
2022/09/30 07:51:20;;;;;;;95.45;41.92;;;8.70;99.90;;;;;;4928150;29;20054;-75
2022/09/30 07:53:52;;;;;;;118.15;43.03;;;8.80;99.90;;;;;;4922758;28;20572;-75
2022/09/30 07:56:19;;;;;;;135.43;41.60;;;8.80;99.90;;;;;;4913488;29;20391;-75
2022/09/30 07:58:45;;;;;;;186.05;44.75;;;8.90;99.90;;;;;;4939807;28;20351;-75
2022/09/30 08:01:11;;;;;;;147.93;40.63;;;9.00;99.90;;;;;;4915264;29;20043;-74
2022/09/30 08:03:40;;;;;;;142.88;42.72;;;9.10;99.90;;;;;;4922829;29;20047;-76
2022/09/30 08:06:15;;;;;;;151.07;48.53;;;9.20;99.90;;;;;;4910284;29;20078;-75
2022/09/30 08:08:42;;;;;;;94.97;40.45;;;9.20;99.90;;;;;;4929004;28;20101;-75
2022/09/30 08:11:09;;;;;;;92.18;39.55;;;9.30;99.90;;;;;;4896694;28;20506;-75
2022/09/30 08:13:35;;;;;;;135.45;47.47;;;9.30;99.90;;;;;;4910863;28;20075;-76
2022/09/30 08:16:01;;;;;;;90.57;41.03;;;9.40;99.90;;;;;;4920939;29;20047;-76
2022/09/30 08:18:27;;;;;;;137.38;49.13;;;9.50;99.90;;;;;;4922142;28;20039;-75
2022/09/30 08:20:53;;;;;;;79.75;43.08;;;9.60;99.90;;;;;;4931656;28;20055;-75
2022/09/30 08:23:19;;;;;;;90.05;45.83;;;9.70;99.90;;;;;;4924683;28;20635;-76
2022/09/30 08:25:45;;;;;;;77.20;45.88;;;9.80;99.90;;;;;;4905194;29;20043;-76
2022/09/30 08:28:11;;;;;;;92.47;48.20;;;9.80;99.90;;;;;;4900684;29;20051;-75
2022/09/30 08:30:38;;;;;;;91.63;50.70;;;9.90;99.90;;;;;;4927885;29;20043;-75
2022/09/30 08:33:04;;;;;;;76.15;46.10;;;10.00;99.90;;;;;;4908074;28;20058;-76
2022/09/30 08:35:30;;;;;;;71.43;47.50;;;10.10;99.90;;;;;;4927883;29;20047;-76
2022/09/30 08:37:56;;;;;;;79.88;49.70;;;10.20;99.90;;;;;;4922940;28;20490;-76
2022/09/30 08:40:26;;;;;;;60.90;43.75;;;10.30;99.90;;;;;;4911000;29;20040;-76
2022/09/30 08:42:58;;;;;;;59.42;44.47;;;10.50;99.90;;;;;;4910343;28;20043;-76
2022/09/30 08:45:39;;;;;;;60.30;45.08;;;10.60;99.90;;;;;;4917618;29;20070;-76
2022/09/30 08:48:30;;;;;;;65.55;46.50;;;10.60;99.90;;;;;;4922413;29;20525;-76
2022/09/30 08:51:02;;;;;;;50.45;40.72;;;10.70;99.90;;;;;;4913328;28;20047;-76
2022/09/30 08:53:33;;;;;;;50.03;38.95;;;10.90;99.90;;;;;;4920527;29;20063;-76
2022/09/30 08:56:01;;;;;;;36.15;31.92;;;11.20;99.90;;;;;;4912618;29;20522;-77
2022/09/30 08:58:37;;;;;;;34.90;31.17;;;11.40;99.90;;;;;;4928640;28;20039;-75
2022/09/30 09:01:18;;;;;;;30.48;27.27;;;11.70;99.90;;;;;;4933762;29;20066;-76
2022/09/30 09:03:44;;;;;;;27.10;24.33;;;12.00;99.90;;;;;;4924973;29;20381;-75
2022/09/30 09:06:25;;;;;;;24.45;22.13;;;12.30;99.90;;;;;;4916780;29;20047;-75
2022/09/30 09:09:05;;;;;;;;;;;12.50;99.90;;;;;;4934100;28;20044;-76
2022/09/30 09:11:35;;;;;;;21.13;18.52;;;12.70;99.90;;;;;;4918412;29;19929;-75
2022/09/30 09:14:10;;;;;;;19.85;17.92;;;12.80;99.90;;;;;;4932370;28;20101;-76
2022/09/30 09:16:44;;;;;;;17.85;16.05;;;13.00;99.90;;;;;;4918648;28;20063;-75
2022/09/30 09:19:23;;;;;;;17.33;15.65;;;13.10;99.90;;;;;;4921706;29;20055;-76
2022/09/30 09:21:56;;;;;;;14.30;13.00;;;13.30;99.90;;;;;;4913215;29;20059;-76
2022/09/30 09:24:29;;;;;;;12.35;10.55;;;13.50;99.90;;;;;;4919846;29;20091;-76
2022/09/30 09:27:00;;;;;;;10.27;9.27;;;13.60;99.90;;;;;;4913985;29;20422;-76
2022/09/30 09:29:53;;;;;;;10.32;9.32;;;13.70;99.90;;;;;;4931646;28;20047;-76
2022/09/30 09:32:19;;;;;;;9.20;8.30;;;13.90;99.90;;;;;;4915592;29;20043;-77
2022/09/30 09:34:51;;;;;;;9.38;8.38;;;13.90;99.90;;;;;;4906683;29;20043;-76
2022/09/30 09:40:35;;;;;;;8.15;7.45;;;14.00;99.90;;;;;;4920956;29;20039;-77
2022/09/30 09:43:32;;;;;;;7.00;6.30;;;14.20;99.90;;;;;;4923763;28;20614;-76
2022/09/30 09:46:02;;;;;;;6.47;5.88;;;14.30;99.90;;;;;;4927368;28;20413;-77
2022/09/30 09:48:34;;;;;;;6.13;5.45;;;14.40;99.90;;;;;;4921239;29;20116;-78
2022/09/30 09:51:23;;;;;;;6.68;4.93;;;14.40;99.90;;;;;;4915747;29;20365;-69
2022/09/30 09:53:57;;;;;;;5.97;4.85;;;14.50;99.90;;;;;;4928706;28;20426;-68
2022/09/30 09:56:27;;;;;;;8.18;4.93;;;14.60;99.90;;;;;;4904722;29;20047;-68
2022/09/30 09:59:17;;;;;;;5.60;3.95;;;14.70;99.90;;;;;;4917032;29;20114;-68
2022/09/30 10:01:46;;;;;;;4.63;3.72;;;14.80;99.90;;;;;;4933122;28;20519;-70
2022/09/30 10:04:31;;;;;;;4.30;3.90;;;14.80;99.90;;;;;;4926939;29;20059;-70
2022/09/30 10:07:12;;;;;;;4.50;3.10;;;14.90;99.90;;;;;;4904126;29;20051;-69
2022/09/30 10:09:39;;;;;;;3.40;3.10;;;15.00;99.90;;;;;;4911163;29;20043;-70
2022/09/30 10:12:05;;;;;;;4.53;3.15;;;15.00;99.90;;;;;;4921568;29;20055;-68
2022/09/30 10:14:47;;;;;;;4.88;3.88;;;14.90;99.90;;;;;;4920556;29;20393;-76
2022/09/30 10:17:30;;;;;;;7.20;3.45;;;14.90;99.90;;;;;;4924726;28;20245;-76
2022/09/30 10:20:30;;;;;;;5.03;4.00;;;14.90;99.90;;;;;;4898504;29;20459;-77
2022/09/30 10:23:19;;;;;;;3.90;3.50;;;14.90;99.90;;;;;;4910733;29;20142;-76
2022/09/30 10:26:03;;;;;;;5.03;4.32;;;15.00;99.90;;;;;;4905958;29;20481;-77
2022/09/30 10:28:43;;;;;;;4.90;4.10;;;15.00;99.90;;;;;;4942685;28;20481;-76
2022/09/30 10:31:25;;;;;;;5.07;3.92;;;15.10;99.90;;;;;;4937357;28;20047;-76
2022/09/30 10:34:28;;;;;;;6.35;5.15;;;15.20;99.90;;;;;;4923102;29;20079;-76
2022/09/30 10:36:56;;;;;;;7.00;5.40;;;15.20;99.90;;;;;;4908050;29;20148;-76
2022/09/30 10:39:25;;;;;;;6.22;5.35;;;15.40;99.90;;;;;;4927216;28;20052;-75
2022/09/30 10:42:22;;;;;;;6.53;5.93;;;15.40;99.90;;;;;;4944599;28;20061;-76
2022/09/30 10:44:55;;;;;;;5.90;5.30;;;15.50;99.90;;;;;;4928623;29;20043;-75
2022/09/30 10:47:25;;;;;;;6.15;5.43;;;15.60;99.90;;;;;;4920753;29;20044;-76
2022/09/30 10:50:06;;;;;;;6.57;5.90;;;15.70;99.90;;;;;;4912424;29;20056;-76
2022/09/30 10:52:36;;;;;;;;;;;15.70;99.90;;;;;;4915203;29;20060;-70
2022/09/30 10:55:08;;;;;;;5.60;4.55;;;15.70;99.90;;;;;;4916133;29;19927;-70
2022/09/30 10:57:36;;;;;;;5.28;4.30;;;15.70;99.90;;;;;;4937812;28;20062;-70
2022/09/30 11:00:05;;;;;;;5.15;4.07;;;15.70;99.90;;;;;;4934506;28;20110;-70
2022/09/30 11:03:04;;;;;;;6.47;4.38;;;15.80;99.90;;;;;;4930370;29;20050;-70
2022/09/30 11:05:39;;;;;;;4.35;3.88;;;15.90;99.90;;;;;;4926745;29;20076;-70
2022/09/30 11:08:21;;;;;;;3.88;3.25;;;16.00;99.90;;;;;;4923037;29;20086;-76
2022/09/30 11:11:16;;;;;;;5.15;3.45;;;16.00;99.90;;;;;;4933369;28;20047;-77
2022/09/30 11:13:49;;;;;;;4.32;3.65;;;15.90;99.90;;;;;;4915395;29;20250;-77
2022/09/30 11:16:35;;;;;;;4.35;3.53;;;15.80;99.90;;;;;;4911125;29;20047;-77
2022/09/30 11:19:07;;;;;;;5.05;4.10;;;15.70;99.90;;;;;;4933407;28;20122;-76
2022/09/30 11:22:08;;;;;;;5.97;4.07;;;15.60;99.90;;;;;;4928528;29;20390;-76
2022/09/30 11:24:41;;;;;;;;;;;15.60;99.90;;;;;;4878676;29;20049;-77
2022/09/30 11:27:22;;;;;;;7.57;4.00;;;15.60;99.90;;;;;;4904709;28;19922;-77
2022/09/30 11:30:11;;;;;;;11.15;4.10;;;15.70;99.90;;;;;;4932287;28;20043;-76
2022/09/30 11:32:53;;;;;;;6.05;3.95;;;15.90;99.90;;;;;;4940754;29;20047;-77
2022/09/30 11:35:35;;;;;;;6.50;4.40;;;16.10;99.90;;;;;;4924309;29;20553;-77
2022/09/30 11:38:03;;;;;;;6.82;4.03;;;16.30;99.90;;;;;;4913276;29;20158;-77
2022/09/30 11:40:29;;;;;;;7.80;4.05;;;16.40;99.90;;;;;;4926249;29;20408;-75
2022/09/30 11:43:17;;;;;;;5.03;3.90;;;16.50;99.90;;;;;;4942052;28;20051;-75
2022/09/30 11:46:13;;;;;;;6.45;3.95;;;16.60;99.90;;;;;;4928605;29;20091;-76
2022/09/30 11:49:07;;;;;;;5.88;3.97;;;16.70;99.90;;;;;;4928040;29;20086;-75
2022/09/30 11:51:39;;;;;;;4.05;3.50;;;16.90;99.90;;;;;;4921889;29;20130;-76
2022/09/30 11:54:33;;;;;;;4.10;3.50;;;16.90;99.90;;;;;;4936190;28;20087;-75
2022/09/30 11:57:11;;;;;;;4.07;3.20;;;16.90;99.90;;;;;;4920450;29;20494;-76
2022/09/30 12:00:02;;;;;;;4.20;3.47;;;16.90;99.90;;;;;;4926875;29;20116;-75
2022/09/30 12:02:50;;;;;;;4.22;3.30;;;16.80;99.90;;;;;;4918926;29;20114;-76
2022/09/30 12:05:22;;;;;;;6.47;3.50;;;16.70;99.90;;;;;;4936950;28;20044;-75
2022/09/30 12:08:11;;;;;;;4.78;4.05;;;16.70;99.90;;;;;;4918493;29;20086;-77
2022/09/30 12:10:44;;;;;;;6.00;4.10;;;16.90;99.90;;;;;;4931810;28;20043;-76
2022/09/30 12:13:17;;;;;;;4.72;4.07;;;16.70;99.90;;;;;;4922444;29;20054;-76
2022/09/30 12:15:46;;;;;;;5.80;4.03;;;16.60;99.90;;;;;;4940433;28;20387;-77
2022/09/30 12:18:33;;;;;;;5.43;4.47;;;16.40;99.90;;;;;;4915100;29;20537;-76
2022/09/30 12:21:14;;;;;;;6.28;4.63;;;16.20;99.90;;;;;;4918655;29;20051;-76
2022/09/30 12:23:48;;;;;;;6.53;5.35;;;16.20;99.90;;;;;;4921580;28;20190;-77
2022/09/30 12:26:15;;;;;;;7.32;5.40;;;16.10;99.90;;;;;;4941651;28;20052;-76
2022/09/30 12:32:21;;;;;;;8.40;7.47;;;16.40;99.90;;;;;;4915758;28;20059;-77
2022/09/30 12:35:26;;;;;;;9.40;8.52;;;16.30;99.90;;;;;;4933389;28;20043;-77
2022/09/30 12:37:56;;;;;;;8.70;7.82;;;16.20;99.90;;;;;;4931377;28;20601;-76
2022/09/30 12:40:34;;;;;;;8.45;7.57;;;16.00;99.90;;;;;;4914285;29;20043;-76
2022/09/30 12:43:15;;;;;;;8.18;7.38;;;16.00;99.90;;;;;;4942085;28;20312;-76
2022/09/30 12:46:02;;;;;;;9.05;8.15;;;16.00;99.90;;;;;;4932264;29;20494;-76
2022/09/30 12:48:40;;;;;;;7.90;7.07;;;16.20;99.90;;;;;;4921815;29;20142;-76
2022/09/30 12:51:07;;;;;;;10.50;9.55;;;16.30;99.90;;;;;;4910008;29;20522;-76
2022/09/30 12:53:36;;;;;;;10.98;9.88;;;16.40;99.90;;;;;;4922377;29;20753;-76
2022/09/30 12:56:12;;;;;;;10.68;9.48;;;16.40;99.90;;;;;;4926348;29;20043;-76
2022/09/30 12:58:46;;;;;;;12.18;10.60;;;16.40;99.90;;;;;;4927856;29;20763;-76
2022/09/30 13:01:15;;;;;;;11.27;9.40;;;16.40;99.90;;;;;;4935021;28;20538;-76
2022/09/30 13:04:04;;;;;;;10.43;9.38;;;16.30;99.90;;;;;;4933252;28;20042;-76
2022/09/30 13:06:45;;;;;;;10.30;9.30;;;16.40;99.90;;;;;;4911282;29;20051;-75
2022/09/30 13:09:10;;;;;;;10.82;9.60;;;16.20;99.90;;;;;;4927578;28;20486;-76
2022/09/30 13:11:40;;;;;;;11.02;10.00;;;16.20;99.90;;;;;;4931553;28;20047;-76
2022/09/30 13:14:34;;;;;;;14.05;11.15;;;16.10;99.90;;;;;;4934329;28;20044;-76
2022/09/30 13:17:06;;;;;;;10.68;9.57;;;16.10;99.90;;;;;;4940113;28;20109;-76
2022/09/30 13:19:39;;;;;;;10.45;9.45;;;16.10;99.90;;;;;;4917886;29;20054;-76
2022/09/30 13:22:18;;;;;;;13.35;10.77;;;16.10;99.90;;;;;;4934123;28;20051;-76
2022/09/30 13:25:02;;;;;;;11.65;10.65;;;16.00;99.90;;;;;;4914554;29;20052;-76